This is the latest recevied weather packets stored in our database for station/object N4QD-13. If no packets are shown the sender has not sent any weather packets the latest 10 day(s).
| Time | Temp. | Humidity | Pressure | Rain* | Wind** | Luminosity | Snow |
|---|---|---|---|---|---|---|---|
| 1777302662 | 15.56° C | 71% | 1025.9 hPa | 0 mm | - | 661 W/m² | - |
| 1777302361 | 15° C | 74% | 1026.1 hPa | 0 mm | - | 659 W/m² | - |
| 1777302059 | 14.44° C | 75% | 1026.1 hPa | 0 mm | - | 645 W/m² | - |
| 1777301756 | 15.56° C | 73% | 1026.1 hPa | 0 mm | - | 629 W/m² | - |
| 1777301453 | 15° C | 73% | 1026 hPa | 0 mm | - | 619 W/m² | - |
| 1777301150 | 14.44° C | 75% | 1026.1 hPa | 0 mm | - | 607 W/m² | - |
| 1777300847 | 14.44° C | 75% | 1026.3 hPa | 0 mm | - | 594 W/m² | - |
| 1777300545 | 14.44° C | 75% | 1026.3 hPa | 0 mm | - | 582 W/m² | - |
| 1777300243 | 13.89° C | 76% | 1026.3 hPa | 0 mm | - | 574 W/m² | - |
| 1777299938 | 13.89° C | 77% | 1026.5 hPa | 0 mm | - | 575 W/m² | - |
| 1777299636 | 13.89° C | 76% | 1026.6 hPa | 0 mm | - | 555 W/m² | - |
| 1777299334 | 13.89° C | 77% | 1026.4 hPa | 0 mm | - | 542 W/m² | - |
| 1777299031 | 13.89° C | 77% | 1026.3 hPa | 0 mm | - | 533 W/m² | - |
| 1777298728 | 13.89° C | 79% | 1026.5 hPa | 0 mm | - | 524 W/m² | - |
| 1777298424 | 13.33° C | 79% | 1026.3 hPa | 0 mm | - | 515 W/m² | - |
| 1777298121 | 12.78° C | 81% | 1026.5 hPa | 0 mm | - | 501 W/m² | - |
| 1777297821 | 12.78° C | 82% | 1026.4 hPa | 0 mm | - | 406 W/m² | - |
| 1777297519 | 12.78° C | 82% | 1026.5 hPa | 0 mm | - | 459 W/m² | - |
| 1777297215 | 12.22° C | 84% | 1026.4 hPa | 0 mm | - | 472 W/m² | - |
| 1777296913 | 11.67° C | 87% | 1026.4 hPa | 0 mm | - | 465 W/m² | - |
| 1777296610 | 11.67° C | 88% | 1026.5 hPa | 0 mm | - | 462 W/m² | - |
| 1777296280 | 11.67° C | 87% | 1026.3 hPa | 0 mm | - | 440 W/m² | - |
| 1777295976 | 11.11° C | 91% | 1026.3 hPa | 0 mm | - | 428 W/m² | - |
| 1777295673 | 10.56° C | 91% | 1026.3 hPa | 0 mm | - | 410 W/m² | - |
| 1777295371 | 10.56° C | 92% | 1026.4 hPa | 0 mm | - | 395 W/m² | - |
* Rain latest hour (hover to see other rain measurements)
** Current wind speed in m/s (hover to see current wind gust speed)